Fort Worth Nas Jrb,Carswell field Fort Worth US
ICAO: KNFW
IATA: NFW
Category: Medium
Scheduled Services: No

Elevation: 650 ft
TransAlt. 18000 ft.

Airport Communications:
RGNL APP/DEP:125.8
NAVY FORT WORTH ARR:128.775
ATIS:27.357
NAVY FORT WORTH GND:126.4
LOCKHEED:28.41
BASE OPS:29.177
PMSV METRO:34.255
NAVY FORT WORTH TWR:120.95

KNFW Zoom In..

Runways:

(A) RW 17 length 12000 ft width 200 ft
ILS 108.70 / hdg 174

(B) RW 35 length 12000 ft width 200 ft
ILS 109.30 / hdg 354

Location; KNFW
Day. 15 / Time. 22.52 Zulu
* Altimeter: 29.89
* Temperature: 38° c. 100.4°f.
* Wind from: 170° Speed 10 kn.
Dewpoint: 15° c.
Visibility: 10 Statute Miles.
Clouds: Clear (automated report).

KNFW 152252Z AUTO 17010KT 10SM CLR 38/15 A2989 RMK AO2 PK WND 15028/2219 SLP106 T03830150 $


Wind From 170°
Speed 10 kn.

 
 
jpsmedia.com for Web Design worldairports.se 2018   terms of use